Corsicana, TX (75110)

12:26 PM CDT on June 26, 2017 (GMT -0500)
Bowie - Collins School area | | Change Station

Elev 433 ft 32.11 °N, 96.49 °W | Updated 1 second ago

Overcast
Overcast
81.1 °F
Feels Like 82 °F
N
0.0
Wind Variable Wind from NE
Gusts 0.0 mph

Today
High -- | Low -- °F
--% Chance of Precip.
Yesterday
High -- | Low -- °F
Precip. -- in
Pressure 30.15 in
Visibility 10.0 miles
Clouds Overcast 10000 ft
Heat Index 82 °F
Dew Point 60 °F
Humidity 49%
Rainfall 0.00 in
Snow Depth Not available.
6:21 AM 8:36 PM
Waxing Crescent, 10% visible
SPECI KCRS 261708Z AUTO 00000KT 10SM OVC100 28/22 A3015 RMK AO2 T02780217 TSNO
Pressure 30.15 in
Visibility 10.0 miles
Clouds Overcast 10000 ft
Heat Index 82 °F
Dew Point 60 °F
Humidity 49%
Rainfall 0.00 in
Snow Depth Not available.
6:21 AM 8:36 PM
Waxing Crescent, 10% visible
SPECI KCRS 261708Z AUTO 00000KT 10SM OVC100 28/22 A3015 RMK AO2 T02780217 TSNO

Get Severe Weather Alerts

Thanks for signing up!

Be on the lookout for a verification email in your inbox.

You'll start receiving the daily forecast at 6 AM.

×

10-Day Weather Forecast

Almanac

Astronomy

Jun. 26, 2017 Rise Set
Actual Time
Civil Twilight
Nautical Twilight
Astronomical Twilight
Moon
Length of Visible Light
Length of Day
Tomorrow will be .
, % of the Moon is Illuminated

Today's Extremes

State Highs State Lows

Community

WunderPhotos

Category 6

Welcome to Category 6. This is the collective home for Weather Underground's featured writeups by Dr. Jeff Masters (right), Bob Henson (left), Chris Burt, and other regular contributors.

Nearby

Air Quality

  Air Quality AQ Index Pollutant
Not available.

Snow Depth

Station Depth Elevation

Earthquake Activity

City Distance Mag. Time & Date
Minimum magnitude displayed is 2.5.

Coastal Water Temperatures

Place Temperature

Stations

Nearby Weather Stations

Station Location Temp. Windchill Dew Point Humidity Wind Precip. Elev Updated Type
                   

Watches & Warnings

There are currently no watches in effect.